createdAt,value
2023-04-18T00:01:49.812Z,16.50
2023-04-18T00:04:51.951Z,17.80
2023-04-18T00:07:53.734Z,16.80
2023-04-18T00:10:55.412Z,16.90
2023-04-18T00:13:57.214Z,15.10
2023-04-18T00:16:58.954Z,15.60
2023-04-18T00:20:01.040Z,16.60
2023-04-18T00:23:02.697Z,15.90
2023-04-18T00:26:04.770Z,16.40
2023-04-18T00:29:06.425Z,16.60
2023-04-18T00:32:08.485Z,15.90
2023-04-18T00:35:10.179Z,14.80
2023-04-18T00:38:11.939Z,15.60
2023-04-18T00:41:13.654Z,15.70
2023-04-18T00:44:15.471Z,15.00
2023-04-18T00:47:17.304Z,15.50
2023-04-18T00:50:19.648Z,14.70
2023-04-18T00:53:21.790Z,14.70
2023-04-18T00:56:23.494Z,14.20
2023-04-18T00:59:25.199Z,14.80
2023-04-18T01:02:28.009Z,14.70
2023-04-18T01:05:30.036Z,13.60
2023-04-18T01:08:32.000Z,13.10
2023-04-18T01:11:33.782Z,14.80
2023-04-18T01:14:35.926Z,13.90
2023-04-18T01:17:37.599Z,15.00
2023-04-18T01:20:40.889Z,15.60
2023-04-18T01:23:42.891Z,15.40
2023-04-18T01:26:46.175Z,16.10
2023-04-18T01:29:47.843Z,16.30
2023-04-18T01:32:49.612Z,17.30
2023-04-18T01:35:51.283Z,16.90
2023-04-18T01:38:53.118Z,15.80
2023-04-18T01:41:54.865Z,17.80
2023-04-18T01:44:56.675Z,17.10
2023-04-18T01:47:58.367Z,18.40
2023-04-18T01:51:00.149Z,17.60
2023-04-18T01:54:02.087Z,18.90
2023-04-18T01:57:03.829Z,18.80
2023-04-18T02:00:06.597Z,19.70
2023-04-18T02:03:08.329Z,19.30
2023-04-18T02:06:10.184Z,21.20
2023-04-18T02:09:11.846Z,22.20
2023-04-18T02:12:13.453Z,20.30
2023-04-18T02:15:15.077Z,21.50
2023-04-18T02:18:16.897Z,23.30
2023-04-18T02:21:18.549Z,21.30
2023-04-18T02:24:20.183Z,21.60
2023-04-18T02:27:21.817Z,22.70
2023-04-18T02:30:25.067Z,22.30
2023-04-18T02:33:26.693Z,22.80
2023-04-18T02:36:28.362Z,21.20
2023-04-18T02:39:30.032Z,22.20
2023-04-18T02:42:31.625Z,23.20
2023-04-18T02:45:33.408Z,23.70
2023-04-18T02:48:35.299Z,24.00
2023-04-18T02:51:36.960Z,21.70
2023-04-18T02:54:38.580Z,24.00
2023-04-18T02:57:40.271Z,23.90
2023-04-18T03:00:41.880Z,24.50
2023-04-18T03:03:43.718Z,24.10
2023-04-18T03:06:45.695Z,24.50
2023-04-18T03:09:47.354Z,23.40
2023-04-18T03:12:48.985Z,25.80
2023-04-18T03:15:51.171Z,23.40
2023-04-18T03:18:52.858Z,23.80
2023-04-18T03:21:54.609Z,24.10
2023-04-18T03:24:56.256Z,24.90
2023-04-18T03:27:57.954Z,24.90
2023-04-18T03:30:59.686Z,23.60
2023-04-18T03:34:01.396Z,24.40
2023-04-18T03:37:03.201Z,23.80
2023-04-18T03:40:05.421Z,22.80
2023-04-18T03:43:07.677Z,22.40
2023-04-18T03:46:09.358Z,23.60
2023-04-18T03:49:11.103Z,23.40
2023-04-18T03:52:12.723Z,22.80
2023-04-18T03:55:14.899Z,23.20
2023-04-18T03:58:16.527Z,21.50
2023-04-18T04:01:18.191Z,20.80
2023-04-18T04:04:19.972Z,21.60
2023-04-18T04:07:21.626Z,21.10
2023-04-18T04:10:23.295Z,21.50
2023-04-18T04:13:25.122Z,19.10
2023-04-18T04:16:28.182Z,21.70
2023-04-18T04:19:29.986Z,21.50
2023-04-18T04:22:31.840Z,21.20
2023-04-18T04:25:33.475Z,21.10
2023-04-18T04:28:35.270Z,20.70
2023-04-18T04:31:36.891Z,20.80
2023-04-18T04:34:38.970Z,21.00
2023-04-18T04:37:40.741Z,21.50
2023-04-18T04:40:42.914Z,21.50
2023-04-18T04:43:47.672Z,21.90
2023-04-18T04:46:49.506Z,22.00
2023-04-18T04:49:51.163Z,21.90
2023-04-18T04:52:52.992Z,22.10
2023-04-18T04:55:54.706Z,20.90
2023-04-18T04:58:56.399Z,21.50
2023-04-18T05:01:58.042Z,21.50
2023-04-18T05:04:59.873Z,22.10
2023-04-18T05:08:02.109Z,21.30
2023-04-18T05:11:06.751Z,24.30
2023-04-18T05:14:08.731Z,22.20
2023-04-18T05:17:10.480Z,23.40
2023-04-18T05:20:13.039Z,22.60
2023-04-18T05:23:14.732Z,22.50
2023-04-18T05:26:16.474Z,23.00
2023-04-18T05:29:18.255Z,20.30
2023-04-18T05:32:20.289Z,21.30
2023-04-18T05:35:22.085Z,20.30
2023-04-18T05:38:23.882Z,21.00
2023-04-18T05:41:25.823Z,18.60
2023-04-18T05:44:27.516Z,19.30
2023-04-18T05:47:29.324Z,19.10
2023-04-18T05:50:31.039Z,18.80
2023-04-18T05:53:32.745Z,18.60
2023-04-18T05:56:34.461Z,18.70
2023-04-18T05:59:36.408Z,17.70
2023-04-18T06:02:38.161Z,18.00
2023-04-18T06:05:40.111Z,20.20
2023-04-18T06:08:41.875Z,17.70
2023-04-18T11:16:28.557Z,5.10
2023-04-18T11:19:32.278Z,4.40
2023-04-18T11:22:46.430Z,4.70
2023-04-18T11:25:49.692Z,4.90
2023-04-18T11:28:52.275Z,4.50
2023-04-18T11:31:57.533Z,4.80
2023-04-18T11:35:00.564Z,5.10
2023-04-18T11:38:02.241Z,5.30
2023-04-18T11:41:03.867Z,4.50
2023-04-18T11:44:06.192Z,5.10
2023-04-18T11:47:22.899Z,4.70
2023-04-18T11:50:25.649Z,4.20
2023-04-18T11:53:38.468Z,4.50
2023-04-18T11:56:48.345Z,4.40
2023-04-18T11:59:50.683Z,4.30
2023-04-18T12:02:52.525Z,4.30
2023-04-18T12:06:00.797Z,4.30
2023-04-18T12:09:02.704Z,4.10
2023-04-18T12:12:04.895Z,3.70
2023-04-18T12:15:14.976Z,4.80
2023-04-18T12:18:18.611Z,4.50
2023-04-18T12:21:20.334Z,9.90
2023-04-18T12:24:22.464Z,5.60
2023-04-18T12:27:24.414Z,5.10
2023-04-18T12:30:29.376Z,5.10
2023-04-18T12:33:31.264Z,5.00
2023-04-18T12:36:33.139Z,4.80
2023-04-18T12:39:34.764Z,6.20
2023-04-18T12:42:36.705Z,6.10
2023-04-18T12:45:38.462Z,8.70
2023-04-18T12:48:40.654Z,5.80
2023-04-18T12:51:42.262Z,4.90
2023-04-18T12:54:43.927Z,9.30
2023-04-18T12:57:45.669Z,6.00
2023-04-18T13:00:47.316Z,4.80
2023-04-18T13:03:59.836Z,4.90
2023-04-18T13:07:10.488Z,5.10
2023-04-18T13:10:14.545Z,5.10
2023-04-18T13:13:16.302Z,4.90
2023-04-18T13:16:18.017Z,4.20
2023-04-18T13:19:19.672Z,5.00
2023-04-18T13:22:21.661Z,5.00
2023-04-18T13:25:23.512Z,4.40
2023-04-18T13:28:25.257Z,4.70
2023-04-18T13:31:27.279Z,4.60
2023-04-18T13:34:29.266Z,4.90
2023-04-18T13:37:30.926Z,4.10
2023-04-18T13:40:32.643Z,4.40
2023-04-18T13:43:34.265Z,4.30
2023-04-18T13:46:36.033Z,4.70
2023-04-18T13:49:37.773Z,4.10
2023-04-18T13:52:39.502Z,4.50
2023-04-18T13:55:41.095Z,4.00
2023-04-18T13:58:42.742Z,3.90
2023-04-18T14:01:44.516Z,4.40
2023-04-18T14:04:46.479Z,4.30
2023-04-18T14:07:48.589Z,3.80
2023-04-18T14:10:50.207Z,4.50
2023-04-18T14:13:51.972Z,3.90
2023-04-18T14:16:53.633Z,3.90
2023-04-18T14:19:55.294Z,4.20
2023-04-18T14:22:56.949Z,4.10
2023-04-18T14:25:58.737Z,4.00
2023-04-18T14:29:00.400Z,4.60
2023-04-18T14:32:02.080Z,4.20
2023-04-18T14:35:05.386Z,4.70
2023-04-18T14:38:07.188Z,4.40
2023-04-18T14:41:09.009Z,4.10
2023-04-18T14:44:10.888Z,4.10
2023-04-18T14:47:12.504Z,4.70
2023-04-18T14:50:14.536Z,4.30
2023-04-18T14:53:16.160Z,5.00
2023-04-18T14:56:18.043Z,5.00
2023-04-18T14:59:19.883Z,5.80
2023-04-18T15:02:22.188Z,5.70
2023-04-18T15:05:24.184Z,5.30
2023-04-18T15:08:25.894Z,5.20
2023-04-18T15:11:27.665Z,5.00
2023-04-18T15:14:30.584Z,5.30
2023-04-18T15:17:33.475Z,5.70
2023-04-18T15:20:35.290Z,6.00
2023-04-18T15:23:37.267Z,5.70
2023-04-18T15:26:38.836Z,6.30
2023-04-18T15:29:40.485Z,6.60
2023-04-18T15:32:42.325Z,6.40
2023-04-18T15:35:44.068Z,7.00
2023-04-18T15:38:45.705Z,7.20
2023-04-18T15:41:47.365Z,7.50
2023-04-18T15:44:49.418Z,7.30
2023-04-18T15:47:51.254Z,7.40
2023-04-18T15:50:52.976Z,7.90
2023-04-18T15:53:54.696Z,7.90
2023-04-18T15:56:56.676Z,8.20
2023-04-18T15:59:58.291Z,7.20
2023-04-18T16:02:59.958Z,6.80
2023-04-18T16:06:01.873Z,7.80
2023-04-18T16:09:03.544Z,8.10
2023-04-18T16:12:05.388Z,8.00
2023-04-18T16:15:09.085Z,7.70
2023-04-18T16:18:10.880Z,7.20
2023-04-18T16:21:14.172Z,7.40
2023-04-18T16:24:16.179Z,7.90
2023-04-18T16:27:17.974Z,8.60
2023-04-18T16:30:19.959Z,8.70
2023-04-18T16:33:21.622Z,8.60
2023-04-18T16:36:23.355Z,9.60
2023-04-18T16:39:25.133Z,9.00
2023-04-18T16:42:26.808Z,8.20
2023-04-18T16:45:28.463Z,8.70
2023-04-18T16:48:30.343Z,7.70
2023-04-18T16:51:32.265Z,9.40
2023-04-18T16:54:33.941Z,9.10
2023-04-18T16:57:35.578Z,9.30
2023-04-18T17:00:38.524Z,10.40
2023-04-18T17:03:40.699Z,9.60
2023-04-18T17:06:42.523Z,9.60
2023-04-18T17:09:44.146Z,9.20
2023-04-18T17:12:46.884Z,9.80
2023-04-18T17:15:48.646Z,9.90
2023-04-18T17:18:50.284Z,10.50
2023-04-18T17:21:52.021Z,10.10
2023-04-18T17:24:53.696Z,9.80
2023-04-18T17:27:55.324Z,10.20
2023-04-18T17:30:56.985Z,9.60
2023-04-18T17:33:59.186Z,10.70
2023-04-18T17:37:01.008Z,10.20
2023-04-18T17:40:03.378Z,10.40
2023-04-18T17:43:05.192Z,10.00
2023-04-18T17:46:06.921Z,9.30
2023-04-18T17:49:08.657Z,10.60
2023-04-18T17:52:10.300Z,11.60
2023-04-18T17:55:12.233Z,10.90
2023-04-18T17:58:13.981Z,11.30
2023-04-18T18:01:17.226Z,11.00
2023-04-18T18:04:19.602Z,11.60
2023-04-18T18:07:21.655Z,12.50
2023-04-18T18:10:23.520Z,14.10
2023-04-18T18:13:25.360Z,14.30
2023-04-18T18:16:27.268Z,15.00
2023-04-18T18:19:29.099Z,13.90
2023-04-18T18:22:30.858Z,14.70
2023-04-18T18:25:32.512Z,13.70
2023-04-18T18:28:34.177Z,15.20
2023-04-18T18:31:36.151Z,13.70
2023-04-18T18:34:37.772Z,15.10
2023-04-18T18:37:39.553Z,14.90
2023-04-18T18:40:41.431Z,15.50
2023-04-18T18:43:43.123Z,16.10
2023-04-18T18:46:45.198Z,16.10
2023-04-18T18:49:46.912Z,15.00
2023-04-18T18:52:48.527Z,16.70
2023-04-18T18:55:50.306Z,15.30
2023-04-18T18:58:54.165Z,16.10
2023-04-18T19:01:55.984Z,15.80
2023-04-18T19:04:57.904Z,17.70
2023-04-18T19:07:59.972Z,16.70
2023-04-18T19:11:01.723Z,17.20
2023-04-18T19:14:03.490Z,16.30
2023-04-18T19:17:05.155Z,17.20
2023-04-18T19:20:08.252Z,16.10
2023-04-18T19:23:10.052Z,15.80
2023-04-18T19:26:11.836Z,16.20
2023-04-18T19:29:18.216Z,15.80
2023-04-18T19:32:19.901Z,17.10
2023-04-18T19:35:21.886Z,15.70
2023-04-18T19:38:23.879Z,16.80
2023-04-18T19:41:25.579Z,17.20
2023-04-18T19:44:28.480Z,16.00
2023-04-18T19:47:30.160Z,16.00
2023-04-18T19:50:31.925Z,15.50
2023-04-18T19:53:34.476Z,15.70
2023-04-18T19:56:38.502Z,14.30
2023-04-18T19:59:40.255Z,14.90
2023-04-18T20:02:42.347Z,15.00
2023-04-18T20:05:44.479Z,14.60
2023-04-18T20:08:46.306Z,13.70
2023-04-18T20:11:47.991Z,13.40
2023-04-18T20:14:50.320Z,12.80
2023-04-18T20:17:52.299Z,13.20
2023-04-18T20:20:54.018Z,13.40
2023-04-18T20:23:55.617Z,13.90
2023-04-18T20:26:59.419Z,14.10
2023-04-18T20:30:01.072Z,13.60
2023-04-18T20:33:03.138Z,14.20
2023-04-18T20:36:05.471Z,13.40
2023-04-18T20:39:08.822Z,14.00
2023-04-18T20:42:10.488Z,13.70
2023-04-18T20:45:12.470Z,15.50
2023-04-18T20:48:14.108Z,15.60
2023-04-18T20:51:16.432Z,16.10
2023-04-18T20:54:18.164Z,15.90
2023-04-18T20:57:19.968Z,15.60
2023-04-18T21:00:21.726Z,16.40
2023-04-18T21:03:23.632Z,15.80
2023-04-18T21:06:25.441Z,16.20
2023-04-18T21:09:27.296Z,16.10
2023-04-18T21:12:28.972Z,17.20
2023-04-18T21:15:30.797Z,17.60
2023-04-18T21:18:32.713Z,16.90
2023-04-18T21:21:34.947Z,17.80
2023-04-18T21:24:36.572Z,17.70
2023-04-18T21:27:38.229Z,18.20
2023-04-18T21:30:39.849Z,17.70
2023-04-18T21:33:41.606Z,17.70
2023-04-18T21:36:43.289Z,17.00
2023-04-18T21:39:45.234Z,17.90
2023-04-18T21:42:48.650Z,17.80
2023-04-18T21:45:51.571Z,18.40
2023-04-18T21:48:53.273Z,19.60
2023-04-18T21:51:55.069Z,20.00
2023-04-18T21:54:56.655Z,19.40
2023-04-18T21:57:58.340Z,18.50
2023-04-18T22:01:00.356Z,20.50
2023-04-18T22:04:02.200Z,19.80
2023-04-18T22:07:04.060Z,19.90
2023-04-18T22:10:06.220Z,20.00
2023-04-18T22:13:08.484Z,20.50
2023-04-18T22:16:10.693Z,19.40
2023-04-18T22:19:12.342Z,19.90
2023-04-18T22:22:14.168Z,20.20
2023-04-18T22:25:15.797Z,19.90
2023-04-18T22:28:17.751Z,19.00
2023-04-18T22:31:19.432Z,19.90
2023-04-18T22:34:21.205Z,20.80
2023-04-18T22:37:22.996Z,20.10
2023-04-18T22:40:24.792Z,20.60
2023-04-18T22:43:26.429Z,18.30
2023-04-18T22:46:28.225Z,20.80
2023-04-18T22:49:29.919Z,19.10
2023-04-18T22:52:31.585Z,20.60
2023-04-18T22:55:33.243Z,19.90
2023-04-18T22:58:34.851Z,20.50
2023-04-18T23:01:36.548Z,20.40
2023-04-18T23:04:38.536Z,20.70
2023-04-18T23:07:40.480Z,21.20
2023-04-18T23:10:42.064Z,19.50
2023-04-18T23:13:43.692Z,19.90
2023-04-18T23:16:45.350Z,19.60
2023-04-18T23:19:47.062Z,21.80
2023-04-18T23:22:48.764Z,20.20
2023-04-18T23:25:50.428Z,20.70
2023-04-18T23:28:52.850Z,21.70
2023-04-18T23:31:54.592Z,21.60
2023-04-18T23:34:56.529Z,22.90
2023-04-18T23:37:58.187Z,21.50
2023-04-18T23:40:59.938Z,21.50
2023-04-18T23:44:01.800Z,22.70
2023-04-18T23:47:03.580Z,22.70
2023-04-18T23:50:05.884Z,22.70
2023-04-18T23:53:07.552Z,22.70
2023-04-18T23:56:09.156Z,22.70
2023-04-18T23:59:10.802Z,26.10
